Flight Track Log - Related Links

Times and Time Zones

All times are in EDT time to prevent confusion due to time zone crossing. See the TYR847 flight status page for this flight to view local times or setup timezone preferences in your user account.

Time Position Orientation Groundspeed Altitude Reporting Facility
EDT Latitude Longitude Course Direction KTS MPH feet Rate Location/Type
Sun 07:09:00 AM 47.7986 16.7349 160° South  Level Estimated
Sun 07:10:00 AM 47.6947 16.7895 161° South  Level Estimated
Sun 07:11:00 AM 47.5907 16.8439 161° South  Level Estimated
Sun 07:12:00 AM 47.4867 16.8981 161° South  Level Estimated
Sun 07:13:00 AM 47.3827 16.9521 161° South  Level Estimated
Sun 07:14:00 AM 47.2786 17.0058 161° South  Level Estimated
Sun 07:15:00 AM 47.1746 17.0594 161° South  Level Estimated
Sun 07:16:00 AM 47.0705 17.1127 161° South  Level Estimated
Sun 07:17:00 AM 46.9664 17.1658 161° South  Level Estimated
Sun 07:18:00 AM 46.8622 17.2188 161° South  Level Estimated
Sun 07:19:00 AM 46.7580 17.2715 161° South  Level Estimated
Sun 07:20:00 AM 46.6539 17.3240 161° South  Level Estimated
Sun 07:21:00 AM 46.5496 17.3763 161° South  Level Estimated
Sun 07:22:00 AM 46.4454 17.4284 161° South  Level Estimated
Sun 07:23:00 AM 46.3411 17.4803 161° South  Level Estimated
Sun 07:24:00 AM 46.2368 17.5320 161° South  Level Estimated
Sun 07:25:00 AM 46.1325 17.5835 161° South  Level Estimated
Sun 07:26:00 AM 46.0282 17.6349 161° South  Level Estimated
Sun 07:27:00 AM 45.9238 17.6860 161° South  Level Estimated
Sun 07:28:00 AM 45.8195 17.7369 161° South  Level Estimated
Sun 07:29:00 AM 45.7151 17.7877 161° South  Level Estimated
Sun 07:30:00 AM 45.6106 17.8382 161° South  Level Estimated
Sun 07:31:00 AM 45.5062 17.8886 161° South  Level Estimated
Sun 07:32:00 AM 45.4017 17.9388 161° South  Level Estimated
Sun 07:33:00 AM 45.2972 17.9888 161° South  Level Estimated
Sun 07:34:00 AM 45.1927 18.0386 161° South  Level Estimated
Sun 07:35:00 AM 45.0882 18.0882 161° South  Level Estimated
Sun 07:36:00 AM 44.9836 18.1377 162° South  Level Estimated
Sun 07:37:00 AM 44.8791 18.1870 162° South  Level Estimated
Sun 07:38:00 AM 44.7744 18.2360 162° South  Level Estimated
Sun 07:39:00 AM 44.6698 18.2850 162° South  Level Estimated
Sun 07:40:00 AM 44.5652 18.3337 162° South  Level Estimated
Sun 07:41:00 AM 44.4605 18.3822 162° South  Level Estimated
Sun 07:42:00 AM 44.3559 18.4306 162° South  Level Estimated
Sun 07:43:00 AM 44.2511 18.4788 162° South  Level Estimated
Sun 07:44:00 AM 44.1464 18.5269 162° South  Level Estimated
Sun 07:45:00 AM 44.0417 18.5748 162° South  Level Estimated
Sun 07:46:00 AM 43.9369 18.6225 162° South  Level Estimated
Sun 07:47:00 AM 43.8321 18.6700 162° South  Level Estimated
Sun 07:48:00 AM 43.7273 18.7174 162° South  Level Estimated
Sun 07:49:00 AM 43.6225 18.7646 162° South  Level Estimated
Sun 07:50:00 AM 43.5177 18.8116 162° South  Level Estimated
Sun 07:51:00 AM 43.4128 18.8585 162° South  Level Estimated
Sun 07:52:00 AM 43.3079 18.9052 162° South  Level Estimated
Sun 07:53:00 AM 43.2030 18.9518 162° South  Level Estimated
Sun 07:54:00 AM 43.0981 18.9981 162° South  Level Estimated
Sun 07:55:00 AM 42.9932 19.0444 162° South  Level Estimated
Sun 07:56:00 AM 42.8882 19.0905 162° South  Level Estimated
Sun 07:57:00 AM 42.7833 19.1364 162° South  Level Estimated
Sun 07:58:00 AM 42.6783 19.1822 162° South  Level Estimated
Sun 07:59:00 AM 42.5733 19.2278 162° South  Level Estimated
Sun 08:00:00 AM 42.4683 19.2732 162° South  Level Estimated
Sun 08:01:00 AM 42.3632 19.3185 162° South  Level Estimated
Sun 08:02:00 AM 42.2581 19.3637 162° South  Level Estimated
Sun 08:03:00 AM 42.1531 19.4087 162° South  Level Estimated
Sun 08:04:00 AM 42.0480 19.4536 162° South  Level Estimated
Sun 08:05:00 AM 41.9429 19.4983 162° South  Level Estimated
Sun 08:06:00 AM 41.8377 19.5428 162° South  Level Estimated
Sun 08:07:00 AM 41.7326 19.5872 163° South  Level Estimated
Sun 08:08:00 AM 41.6274 19.6315 163° South  Level Estimated
Sun 08:09:00 AM 41.5222 19.6756 163° South  Level Estimated
Sun 08:10:00 AM 41.4170 19.7196 163° South  Level Estimated
Sun 08:11:00 AM 41.4147 19.7206 163° South  Level Estimated
Sun 08:12:00 AM 41.4147 19.7206 21° North  Level Estimated
Sun 08:13:00 AM 41.4147 19.7206 21° North  Level Estimated
Sun 08:14:00 AM 41.4147 19.7206 21° North  Level Estimated
Sun 08:15:00 AM 41.4147 19.7206 21° North  Level Estimated
Sun 08:16:00 AM 41.4147 19.7206 21° North  Level Estimated
Sun 08:17:00 AM 41.4147 19.7206 21° North  Level Estimated
Sun 08:18:00 AM 41.4147 19.7206 21° North  Level Estimated
Sun 08:19:00 AM 41.4147 19.7206 21° North  Level Estimated
Sun 08:20:00 AM 41.4147 19.7206 21° North  Level Estimated
Sun 08:21:00 AM 41.4147 19.7206 21° North  Level Estimated
Sun 08:22:00 AM 41.4147 19.7206 21° North  Level Estimated
Sun 08:23:00 AM 41.4147 19.7206 21° North  Level Estimated
Sun 08:24:00 AM 41.4147 19.7206 21° North  Level Estimated
Sun 08:25:00 AM 41.4147 19.7206 21° North  Level Estimated
Sun 08:26:00 AM 41.4147 19.7206 21° North  Level Estimated

Login

Don't have an account? Register now (free) for customized features, flight alerts, and more!